createdAt,value
2024-02-11T00:00:12.067Z,17.00
2024-02-11T00:01:44.051Z,17.80
2024-02-11T00:03:27.125Z,16.30
2024-02-11T00:04:58.970Z,19.80
2024-02-11T00:06:30.967Z,17.00
2024-02-11T00:08:02.817Z,16.90
2024-02-11T00:09:34.649Z,17.60
2024-02-11T00:11:07.523Z,17.90
2024-02-11T00:12:40.273Z,17.30
2024-02-11T00:14:12.176Z,18.80
2024-02-11T00:15:45.010Z,17.90
2024-02-11T00:17:18.597Z,20.80
2024-02-11T00:18:50.852Z,17.70
2024-02-11T00:20:22.797Z,16.40
2024-02-11T00:21:54.731Z,19.00
2024-02-11T00:23:27.874Z,18.20
2024-02-11T00:24:59.620Z,20.00
2024-02-11T00:26:31.530Z,19.70
2024-02-11T00:28:03.451Z,17.90
2024-02-11T00:29:35.237Z,18.30
2024-02-11T00:31:07.297Z,19.70
2024-02-11T00:32:39.491Z,20.10
2024-02-11T00:34:11.495Z,19.40
2024-02-11T00:35:43.454Z,18.50
2024-02-11T00:37:16.069Z,20.10
2024-02-11T00:38:47.839Z,19.80
2024-02-11T00:40:22.955Z,20.20
2024-02-11T00:41:56.162Z,18.00
2024-02-11T00:43:28.177Z,20.50
2024-02-11T00:45:01.324Z,18.30
2024-02-11T00:46:33.064Z,20.10
2024-02-11T00:48:06.725Z,20.10
2024-02-11T00:49:38.552Z,19.10
2024-02-11T00:51:11.831Z,20.40
2024-02-11T00:52:45.698Z,21.90
2024-02-11T00:54:17.505Z,21.00
2024-02-11T00:55:49.437Z,20.30
2024-02-11T00:57:21.433Z,18.70
2024-02-11T00:58:53.240Z,18.50
2024-02-11T01:00:24.967Z,17.00
2024-02-11T01:01:56.818Z,19.70
2024-02-11T01:03:30.791Z,18.90
2024-02-11T01:05:03.435Z,17.10
2024-02-11T01:06:37.812Z,17.70
2024-02-11T01:08:13.368Z,17.90
2024-02-11T01:09:45.223Z,22.00
2024-02-11T01:13:28.587Z,21.20
2024-02-11T01:15:00.637Z,18.00
2024-02-11T01:16:32.757Z,18.90
2024-02-11T01:18:05.987Z,20.10
2024-02-11T01:19:39.748Z,18.80
2024-02-11T01:21:12.126Z,18.30
2024-02-11T01:22:47.972Z,18.00
2024-02-11T01:24:20.330Z,17.50
2024-02-11T01:25:53.160Z,19.10
2024-02-11T01:27:27.644Z,18.80
2024-02-11T01:28:59.985Z,19.10
2024-02-11T01:30:33.688Z,20.20
2024-02-11T01:32:10.432Z,19.60
2024-02-11T01:33:42.525Z,19.40
2024-02-11T01:35:15.501Z,19.90
2024-02-11T01:36:47.647Z,19.90
2024-02-11T01:38:19.907Z,21.10
2024-02-11T01:39:52.270Z,20.60
2024-02-11T01:41:24.346Z,22.10
2024-02-11T01:43:01.411Z,24.30
2024-02-11T01:44:33.983Z,19.70
2024-02-11T01:46:07.701Z,21.80
2024-02-11T01:47:40.180Z,21.20
2024-02-11T01:49:14.059Z,23.10
2024-02-11T01:50:48.598Z,22.90
2024-02-11T01:52:20.618Z,20.80
2024-02-11T01:53:52.641Z,21.10
2024-02-11T01:55:26.270Z,20.60
2024-02-11T01:57:02.301Z,21.40
2024-02-11T01:58:34.564Z,21.20
2024-02-11T02:00:09.715Z,19.70
2024-02-11T02:01:41.948Z,20.00
2024-02-11T02:03:15.590Z,19.00
2024-02-11T02:04:49.399Z,18.60
2024-02-11T02:06:24.593Z,19.70
2024-02-11T02:07:59.357Z,21.20
2024-02-11T02:09:34.374Z,20.30
2024-02-11T02:11:06.729Z,20.40
2024-02-11T02:12:44.256Z,20.00
2024-02-11T02:14:16.292Z,18.70
2024-02-11T02:15:48.946Z,19.80
2024-02-11T02:17:20.948Z,18.70
2024-02-11T02:18:56.426Z,19.80
2024-02-11T02:20:28.445Z,19.00
2024-02-11T02:22:00.461Z,17.40
2024-02-11T02:23:32.970Z,19.90
2024-02-11T02:25:06.196Z,20.10
2024-02-11T02:26:39.756Z,20.80
2024-02-11T02:28:11.706Z,17.90
2024-02-11T02:29:46.024Z,22.50
2024-02-11T02:31:17.984Z,19.90
2024-02-11T02:32:49.914Z,20.00
2024-02-11T02:34:23.158Z,19.70
2024-02-11T02:35:55.689Z,19.60
2024-02-11T02:37:30.258Z,20.90
2024-02-11T02:39:04.195Z,17.80
2024-02-11T02:40:36.274Z,20.40
2024-02-11T02:42:08.403Z,20.30
2024-02-11T02:43:40.535Z,20.00
2024-02-11T02:45:12.779Z,19.60
2024-02-11T02:46:44.715Z,21.50
2024-02-11T02:48:16.921Z,20.70
2024-02-11T02:49:49.134Z,22.30
2024-02-11T02:51:21.123Z,22.40
2024-02-11T02:52:54.269Z,20.70
2024-02-11T02:54:28.230Z,22.70
2024-02-11T02:56:00.229Z,21.10
2024-02-11T02:57:32.852Z,23.40
2024-02-11T02:59:10.942Z,20.10
2024-02-11T03:00:43.431Z,21.90
2024-02-11T03:02:15.830Z,21.10
2024-02-11T03:03:48.124Z,22.40
2024-02-11T03:05:24.217Z,21.00
2024-02-11T03:06:57.547Z,22.40
2024-02-11T03:08:29.675Z,21.10
2024-02-11T03:10:05.716Z,20.60
2024-02-11T03:11:40.864Z,19.70
2024-02-11T03:13:13.034Z,21.20
2024-02-11T03:14:45.649Z,21.00
2024-02-11T03:16:17.831Z,20.30
2024-02-11T03:17:50.176Z,22.70
2024-02-11T03:19:22.394Z,22.00
2024-02-11T03:20:54.418Z,22.50
2024-02-11T03:22:27.542Z,21.80
2024-02-11T03:24:00.160Z,19.80
2024-02-11T03:25:32.396Z,22.80
2024-02-11T03:27:05.068Z,22.80
2024-02-11T03:28:41.732Z,22.70
2024-02-11T03:30:18.596Z,26.70
2024-02-11T03:31:51.267Z,22.50
2024-02-11T03:33:23.411Z,22.70
2024-02-11T03:34:55.823Z,22.00
2024-02-11T03:36:28.263Z,22.00
2024-02-11T03:38:00.837Z,22.20
2024-02-11T03:39:32.804Z,21.10
2024-02-11T03:41:04.958Z,22.10
2024-02-11T03:42:37.880Z,24.30
2024-02-11T03:44:10.226Z,22.40
2024-02-11T03:45:42.269Z,22.00
2024-02-11T03:47:14.476Z,21.00
2024-02-11T03:48:46.711Z,24.00
2024-02-11T03:50:20.855Z,21.70
2024-02-11T03:51:53.126Z,22.20
2024-02-11T03:53:25.774Z,23.10
2024-02-11T03:54:58.087Z,21.30
2024-02-11T03:56:30.492Z,20.90
2024-02-11T03:58:03.112Z,22.00
2024-02-11T03:59:37.529Z,20.50
2024-02-11T04:01:09.642Z,22.00
2024-02-11T04:02:42.620Z,21.00
2024-02-11T04:04:14.642Z,22.80
2024-02-11T04:05:48.369Z,21.10
2024-02-11T04:07:21.365Z,19.00
2024-02-11T04:08:53.321Z,24.10
2024-02-11T04:10:29.902Z,20.90
2024-02-11T04:12:02.486Z,21.50
2024-02-11T04:13:34.663Z,23.50
2024-02-11T04:15:11.262Z,21.10
2024-02-11T04:16:46.869Z,22.20
2024-02-11T04:18:22.611Z,21.80
2024-02-11T04:19:54.735Z,26.50
2024-02-11T04:21:36.633Z,22.30
2024-02-11T04:23:10.695Z,21.10
2024-02-11T04:24:42.772Z,20.80
2024-02-11T04:26:15.530Z,19.50
2024-02-11T04:27:48.133Z,22.60
2024-02-11T04:29:25.369Z,21.30
2024-02-11T04:30:58.022Z,20.70
2024-02-11T04:32:30.083Z,20.90
2024-02-11T04:34:03.107Z,19.50
2024-02-11T04:35:37.405Z,23.90
2024-02-11T04:37:09.759Z,20.20
2024-02-11T04:38:41.681Z,21.60
2024-02-11T04:40:21.200Z,21.40
2024-02-11T04:41:54.819Z,20.30
2024-02-11T04:43:27.041Z,20.00
2024-02-11T04:45:00.184Z,20.80
2024-02-11T04:46:35.760Z,20.40
2024-02-11T04:48:10.768Z,19.80
2024-02-11T04:49:43.254Z,20.50
2024-02-11T04:51:16.522Z,20.00
2024-02-11T04:52:58.235Z,18.70
2024-02-11T04:54:30.256Z,20.00
2024-02-11T04:56:02.379Z,18.70
2024-02-11T04:57:40.284Z,18.60
2024-02-11T04:59:13.323Z,20.40
2024-02-11T05:00:55.122Z,18.10
2024-02-11T05:02:28.643Z,18.10
2024-02-11T05:04:02.738Z,17.40
2024-02-11T05:05:38.605Z,18.90
2024-02-11T05:07:11.198Z,17.70
2024-02-11T05:08:45.370Z,18.60
2024-02-11T05:10:17.586Z,18.40
2024-02-11T05:11:51.816Z,18.90
2024-02-11T05:13:25.480Z,18.10
2024-02-11T05:14:57.761Z,17.50
2024-02-11T05:16:30.615Z,19.10
2024-02-11T05:18:03.848Z,18.30
2024-02-11T05:19:35.846Z,18.00
2024-02-11T05:21:08.895Z,18.00
2024-02-11T05:22:45.660Z,17.90
2024-02-11T05:24:17.677Z,18.70
2024-02-11T05:25:51.824Z,18.20
2024-02-11T05:27:24.274Z,17.50
2024-02-11T05:28:57.941Z,16.40
2024-02-11T05:30:49.111Z,15.60
2024-02-11T05:32:22.927Z,18.50
2024-02-11T05:33:57.752Z,18.40
2024-02-11T05:35:36.089Z,16.80
2024-02-11T05:37:10.335Z,16.50
2024-02-11T05:38:42.329Z,17.60
2024-02-11T05:40:14.489Z,17.20
2024-02-11T05:41:46.433Z,16.90
2024-02-11T05:43:21.073Z,18.30
2024-02-11T05:44:53.782Z,16.60
2024-02-11T05:46:27.492Z,16.50
2024-02-11T05:47:59.847Z,16.20
2024-02-11T05:49:32.695Z,16.00
2024-02-11T05:51:05.107Z,15.80
2024-02-11T05:52:37.542Z,16.10
2024-02-11T05:54:10.076Z,18.50
2024-02-11T05:55:42.175Z,17.00
2024-02-11T05:57:14.869Z,16.50
2024-02-11T05:58:46.944Z,16.60
2024-02-11T06:00:34.015Z,15.10
2024-02-11T06:02:07.904Z,14.10
2024-02-11T06:03:41.592Z,14.20
2024-02-11T06:05:15.321Z,13.20
2024-02-11T06:06:47.613Z,12.90
2024-02-11T06:08:22.467Z,12.30
2024-02-11T06:09:55.598Z,13.30
2024-02-11T06:11:29.799Z,14.40
2024-02-11T06:13:03.801Z,11.50
2024-02-11T06:14:39.189Z,20.00
2024-02-11T06:16:12.882Z,12.80
2024-02-11T06:17:44.854Z,13.90
2024-02-11T06:19:17.050Z,14.70
2024-02-11T06:20:49.554Z,13.50
2024-02-11T06:22:23.004Z,14.20
2024-02-11T06:23:55.487Z,13.50
2024-02-11T06:25:27.430Z,11.90
2024-02-11T06:27:01.928Z,14.60
2024-02-11T06:28:35.727Z,13.90
2024-02-11T06:30:14.113Z,12.60
2024-02-11T06:31:55.608Z,14.00
2024-02-11T06:33:27.821Z,11.50
2024-02-11T06:35:00.510Z,11.10
2024-02-11T06:36:37.975Z,10.20
2024-02-11T06:38:10.029Z,11.00
2024-02-11T06:39:42.077Z,12.30
2024-02-11T06:41:14.100Z,9.80
2024-02-11T06:42:52.233Z,9.90
2024-02-11T06:44:31.542Z,9.70
2024-02-11T06:46:04.977Z,9.60
2024-02-11T06:47:38.167Z,10.30
2024-02-11T06:49:11.451Z,9.70
2024-02-11T06:50:45.071Z,9.50
2024-02-11T06:52:18.204Z,8.30
2024-02-11T06:53:50.756Z,9.70
2024-02-11T06:55:22.822Z,7.00
2024-02-11T06:56:55.381Z,6.30
2024-02-11T06:58:28.059Z,7.20
2024-02-11T07:00:00.479Z,6.30
2024-02-11T07:01:32.556Z,7.60
2024-02-11T07:03:05.553Z,7.70
2024-02-11T07:04:37.656Z,5.50
2024-02-11T07:06:12.637Z,6.10
2024-02-11T07:07:46.000Z,5.20
2024-02-11T07:09:19.942Z,7.00
2024-02-11T07:10:51.878Z,4.70
2024-02-11T07:12:23.783Z,4.90
2024-02-11T07:13:55.811Z,4.00
2024-02-11T07:15:28.165Z,5.60
2024-02-11T07:17:01.876Z,4.90
2024-02-11T07:18:35.321Z,4.60
2024-02-11T07:20:10.191Z,3.40
2024-02-11T07:21:43.443Z,4.70
2024-02-11T07:23:16.615Z,2.90
2024-02-11T07:24:48.926Z,4.30
2024-02-11T07:26:21.385Z,3.80
2024-02-11T07:27:53.392Z,5.80
2024-02-11T07:29:31.614Z,10.00
2024-02-11T07:31:03.944Z,7.80
2024-02-11T07:32:36.125Z,8.40
2024-02-11T07:34:08.454Z,8.60
2024-02-11T07:35:40.607Z,9.20
2024-02-11T07:37:12.978Z,9.50
2024-02-11T07:38:48.288Z,9.90
2024-02-11T07:40:22.304Z,7.80
2024-02-11T07:41:55.486Z,8.50
2024-02-11T07:43:27.971Z,9.50
2024-02-11T07:45:01.851Z,11.40
2024-02-11T07:46:33.794Z,9.90
2024-02-11T07:48:09.217Z,10.40
2024-02-11T07:49:41.248Z,10.00
2024-02-11T07:51:23.647Z,11.60
2024-02-11T07:52:57.244Z,8.50
2024-02-11T07:54:29.164Z,7.40
2024-02-11T07:56:07.879Z,7.50
2024-02-11T07:57:40.089Z,8.40
2024-02-11T07:59:15.960Z,8.00
2024-02-11T08:00:48.099Z,7.40
2024-02-11T08:02:20.403Z,10.00
2024-02-11T08:03:54.326Z,10.80
2024-02-11T08:05:26.593Z,9.50
2024-02-11T08:06:58.546Z,8.40
2024-02-11T08:08:30.589Z,8.20
2024-02-11T08:10:03.770Z,7.30
2024-02-11T08:11:35.837Z,9.20
2024-02-11T08:13:10.680Z,10.60
2024-02-11T08:14:42.461Z,8.60
2024-02-11T08:16:14.509Z,12.00
2024-02-11T08:17:46.350Z,7.60
2024-02-11T08:19:18.288Z,8.90
2024-02-11T08:20:50.205Z,8.70
2024-02-11T08:22:22.274Z,8.60
2024-02-11T08:23:56.088Z,10.70
2024-02-11T08:25:28.187Z,8.30
2024-02-11T08:27:00.256Z,9.70
2024-02-11T08:28:32.203Z,8.60
2024-02-11T08:30:05.392Z,9.30
2024-02-11T08:31:37.294Z,10.40
2024-02-11T08:33:11.024Z,10.20
2024-02-11T08:34:42.940Z,6.90
2024-02-11T08:36:16.680Z,8.60
2024-02-11T08:37:48.910Z,9.80
2024-02-11T08:39:20.745Z,7.80
2024-02-11T08:40:52.856Z,9.60
2024-02-11T08:42:26.276Z,9.10
2024-02-11T08:43:58.117Z,8.80
2024-02-11T08:45:30.224Z,7.30
2024-02-11T08:47:03.509Z,10.70
2024-02-11T08:48:35.882Z,8.80
2024-02-11T08:50:12.266Z,11.50
2024-02-11T08:51:46.707Z,11.10
2024-02-11T08:53:18.562Z,12.10
2024-02-11T08:54:51.032Z,8.70
2024-02-11T08:56:23.050Z,9.30
2024-02-11T08:57:54.875Z,11.10
2024-02-11T08:59:26.801Z,9.90
2024-02-11T09:01:00.578Z,10.00
2024-02-11T09:02:32.869Z,15.80
2024-02-11T09:04:06.011Z,9.20
2024-02-11T09:05:37.972Z,9.80
2024-02-11T09:07:11.501Z,14.70
2024-02-11T09:08:43.316Z,13.80
2024-02-11T09:10:16.126Z,9.50
2024-02-11T09:11:48.692Z,10.30
2024-02-11T09:13:20.555Z,11.60
2024-02-11T09:14:52.393Z,10.30
2024-02-11T09:16:26.895Z,13.00
2024-02-11T09:17:58.881Z,9.50
2024-02-11T09:19:31.320Z,11.30
2024-02-11T09:21:03.248Z,12.10
2024-02-11T09:22:35.391Z,8.70
2024-02-11T09:24:08.337Z,9.80
2024-02-11T09:25:43.726Z,11.80
2024-02-11T09:27:16.230Z,10.40
2024-02-11T09:28:48.697Z,9.60
2024-02-11T09:30:21.523Z,11.00
2024-02-11T09:31:53.930Z,7.70
2024-02-11T09:33:27.136Z,10.00
2024-02-11T09:34:59.300Z,9.50
2024-02-11T09:36:31.139Z,9.50
2024-02-11T09:38:02.992Z,10.10
2024-02-11T09:39:34.942Z,9.40
2024-02-11T09:41:08.309Z,9.50
2024-02-11T09:42:40.574Z,10.10
2024-02-11T09:44:26.804Z,9.30
2024-02-11T09:46:02.403Z,9.30
2024-02-11T09:47:38.547Z,12.70
2024-02-11T09:49:23.436Z,13.20
2024-02-11T09:50:59.129Z,9.80
2024-02-11T09:52:31.080Z,11.30
2024-02-11T09:54:05.784Z,11.20
2024-02-11T09:55:40.461Z,10.00
2024-02-11T09:57:12.954Z,10.10
2024-02-11T09:58:44.788Z,9.80
2024-02-11T10:00:19.133Z,8.70
2024-02-11T10:01:51.020Z,8.60
2024-02-11T10:03:28.720Z,10.10
2024-02-11T10:05:10.486Z,11.10
2024-02-11T10:06:45.661Z,8.40
2024-02-11T10:08:18.728Z,8.30
2024-02-11T10:09:51.648Z,8.00
2024-02-11T10:11:27.109Z,11.70
2024-02-11T10:13:01.753Z,8.20
2024-02-11T10:14:35.731Z,8.10
2024-02-11T10:16:09.261Z,10.60
2024-02-11T10:17:43.061Z,9.80
2024-02-11T10:19:15.130Z,9.10
2024-02-11T10:20:48.449Z,9.00
2024-02-11T10:22:28.571Z,8.80
2024-02-11T10:24:03.236Z,8.70
2024-02-11T10:25:35.643Z,7.00
2024-02-11T10:27:09.039Z,9.90
2024-02-11T10:28:41.939Z,8.30
2024-02-11T10:30:14.872Z,9.30
2024-02-11T10:31:48.516Z,8.40
2024-02-11T10:33:20.882Z,9.90
2024-02-11T10:34:52.832Z,7.30
2024-02-11T10:36:26.399Z,9.50
2024-02-11T10:38:00.840Z,11.70
2024-02-11T10:39:32.927Z,10.00
2024-02-11T10:41:05.151Z,11.80
2024-02-11T10:42:39.128Z,9.50
2024-02-11T10:44:11.759Z,9.40
2024-02-11T10:45:43.635Z,8.90
2024-02-11T10:47:15.563Z,8.50
2024-02-11T10:48:48.323Z,9.30
2024-02-11T10:50:20.536Z,10.70
2024-02-11T10:52:03.990Z,8.70
2024-02-11T10:53:41.645Z,9.50
2024-02-11T10:55:16.387Z,11.00
2024-02-11T10:56:48.894Z,8.00
2024-02-11T10:58:30.619Z,8.20
2024-02-11T11:00:03.370Z,9.10
2024-02-11T11:01:39.397Z,8.20
2024-02-11T11:03:15.987Z,7.60
2024-02-11T11:12:57.681Z,8.20
2024-02-11T11:14:33.638Z,8.20
2024-02-11T11:16:06.379Z,10.80
2024-02-11T11:17:38.849Z,7.20
2024-02-11T11:19:16.805Z,9.20
2024-02-11T11:20:58.367Z,9.30
2024-02-11T11:22:30.301Z,9.90
2024-02-11T11:24:02.822Z,11.10
2024-02-11T11:25:37.660Z,8.70
2024-02-11T11:27:11.527Z,11.40
2024-02-11T11:28:43.609Z,7.20
2024-02-11T11:30:16.960Z,11.80
2024-02-11T11:31:49.811Z,8.50
2024-02-11T11:33:24.327Z,10.10
2024-02-11T11:34:56.444Z,8.40
2024-02-11T11:36:29.943Z,9.20
2024-02-11T11:38:04.272Z,10.20
2024-02-11T11:39:36.877Z,8.10
2024-02-11T11:41:10.907Z,9.90
2024-02-11T11:42:43.064Z,7.40
2024-02-11T11:44:23.428Z,10.60
2024-02-11T11:45:58.129Z,9.10
2024-02-11T11:47:30.437Z,9.70
2024-02-11T11:49:02.574Z,9.30
2024-02-11T11:50:34.529Z,8.20
2024-02-11T11:52:09.649Z,9.20
2024-02-11T11:53:45.666Z,8.20
2024-02-11T11:55:17.691Z,8.80
2024-02-11T11:56:57.216Z,9.10
2024-02-11T11:58:31.538Z,8.40
2024-02-11T12:00:04.690Z,7.30
2024-02-11T12:01:44.228Z,10.30
2024-02-11T12:03:16.344Z,7.10
2024-02-11T12:04:48.295Z,8.20
2024-02-11T12:06:24.095Z,9.10
2024-02-11T12:07:56.384Z,8.20
2024-02-11T12:09:29.557Z,10.20
2024-02-11T12:11:10.083Z,7.70
2024-02-11T12:12:42.254Z,5.90
2024-02-11T12:14:15.428Z,9.30
2024-02-11T12:15:48.084Z,5.50
2024-02-11T12:17:20.356Z,6.30
2024-02-11T12:18:52.349Z,8.40
2024-02-11T12:20:24.493Z,8.00
2024-02-11T12:21:56.474Z,7.00
2024-02-11T12:23:28.548Z,10.00
2024-02-11T12:25:00.528Z,7.20
2024-02-11T12:26:33.961Z,7.30
2024-02-11T12:28:10.480Z,9.00
2024-02-11T12:29:45.339Z,6.60
2024-02-11T12:31:17.991Z,8.20
2024-02-11T12:32:50.007Z,7.40
2024-02-11T12:34:25.237Z,8.30
2024-02-11T12:35:57.212Z,8.50
2024-02-11T12:37:36.747Z,8.00
2024-02-11T12:39:09.174Z,7.20
2024-02-11T12:40:41.926Z,6.30
2024-02-11T12:42:17.269Z,9.30
2024-02-11T12:43:49.990Z,8.00
2024-02-11T12:45:22.370Z,9.30
2024-02-11T12:46:54.192Z,7.90
2024-02-11T12:48:26.885Z,6.60
2024-02-11T12:49:59.303Z,9.90
2024-02-11T12:51:31.166Z,7.80
2024-02-11T12:53:03.301Z,7.60
2024-02-11T12:54:35.752Z,8.10
2024-02-11T12:56:12.080Z,8.90
2024-02-11T12:57:44.193Z,6.10
2024-02-11T12:59:16.167Z,9.50
2024-02-11T13:00:48.298Z,8.50
2024-02-11T13:02:20.792Z,6.80
2024-02-11T13:03:53.539Z,8.10
2024-02-11T13:05:27.908Z,7.50
2024-02-11T13:07:00.803Z,8.60
2024-02-11T13:08:37.174Z,6.10
2024-02-11T13:10:12.534Z,8.20
2024-02-11T13:11:45.318Z,7.60
2024-02-11T13:13:17.153Z,6.10
2024-02-11T13:14:49.050Z,8.40
2024-02-11T13:16:21.437Z,7.80
2024-02-11T13:17:53.532Z,6.40
2024-02-11T13:19:25.983Z,5.80
2024-02-11T13:20:59.400Z,6.80
2024-02-11T13:22:31.398Z,7.50
2024-02-11T13:24:03.211Z,10.00
2024-02-11T13:25:35.719Z,8.00
2024-02-11T13:27:07.670Z,7.90
2024-02-11T13:28:40.275Z,8.70
2024-02-11T13:30:12.929Z,6.50
2024-02-11T13:31:45.977Z,6.10
2024-02-11T13:33:18.669Z,6.20
2024-02-11T13:34:53.784Z,8.00
2024-02-11T13:36:28.371Z,6.90
2024-02-11T13:38:00.367Z,7.80
2024-02-11T13:39:33.188Z,4.40
2024-02-11T13:41:05.914Z,6.00
2024-02-11T13:42:38.083Z,5.40
2024-02-11T13:44:10.196Z,9.40
2024-02-11T13:45:43.601Z,6.60
2024-02-11T13:47:15.646Z,5.50
2024-02-11T13:48:49.198Z,9.60
2024-02-11T13:50:21.429Z,6.40
2024-02-11T13:51:53.546Z,7.60
2024-02-11T13:53:25.549Z,7.30
2024-02-11T13:54:57.460Z,5.90
2024-02-11T13:56:29.500Z,5.80
2024-02-11T13:58:01.429Z,6.60
2024-02-11T13:59:34.425Z,12.60
2024-02-11T14:01:07.360Z,5.10
2024-02-11T14:02:42.723Z,6.10
2024-02-11T14:04:14.647Z,7.20
2024-02-11T14:05:47.351Z,5.70
2024-02-11T14:07:19.548Z,4.90
2024-02-11T14:08:51.512Z,8.10
2024-02-11T14:10:23.448Z,6.90
2024-02-11T14:11:58.831Z,6.20
2024-02-11T14:13:32.526Z,7.10
2024-02-11T14:15:06.307Z,5.00
2024-02-11T14:16:39.013Z,6.10
2024-02-11T14:18:12.599Z,4.40
2024-02-11T14:19:44.983Z,5.60
2024-02-11T14:21:16.868Z,6.90
2024-02-11T14:22:50.802Z,7.50
2024-02-11T14:24:22.647Z,5.90
2024-02-11T14:25:55.346Z,7.10
2024-02-11T14:27:27.208Z,6.80
2024-02-11T14:28:59.145Z,5.20
2024-02-11T14:30:31.183Z,6.30
2024-02-11T14:32:06.426Z,6.20
2024-02-11T14:33:38.525Z,7.70
2024-02-11T14:35:13.317Z,5.30
2024-02-11T14:36:45.248Z,5.60
2024-02-11T14:38:17.152Z,7.80
2024-02-11T14:39:49.058Z,5.50
2024-02-11T14:41:24.119Z,5.00
2024-02-11T14:42:56.239Z,6.30
2024-02-11T14:44:28.236Z,7.90
2024-02-11T14:46:02.087Z,5.90
2024-02-11T14:47:34.935Z,5.20
2024-02-11T14:49:10.499Z,7.40
2024-02-11T14:50:42.658Z,6.50
2024-02-11T14:52:15.331Z,4.40
2024-02-11T14:53:47.874Z,5.50
2024-02-11T14:55:19.880Z,6.60
2024-02-11T14:56:53.427Z,5.30
2024-02-11T14:58:27.487Z,5.90
2024-02-11T14:59:59.564Z,5.90
2024-02-11T15:01:31.469Z,6.00
2024-02-11T15:03:04.917Z,4.60
2024-02-11T15:04:38.626Z,4.70
2024-02-11T15:06:14.194Z,4.80
2024-02-11T15:07:46.248Z,5.40
2024-02-11T15:09:19.556Z,5.60
2024-02-11T15:10:51.711Z,6.80
2024-02-11T15:12:27.730Z,5.30
2024-02-11T15:14:01.484Z,5.30
2024-02-11T15:15:33.812Z,7.50
2024-02-11T15:17:05.668Z,5.40
2024-02-11T15:18:38.040Z,6.60
2024-02-11T15:20:12.127Z,5.90
2024-02-11T15:21:45.255Z,9.20
2024-02-11T15:23:17.546Z,6.80
2024-02-11T15:24:50.027Z,8.30
2024-02-11T15:26:25.147Z,5.60
2024-02-11T15:27:57.767Z,4.90
2024-02-11T15:29:30.108Z,6.80
2024-02-11T15:31:02.858Z,7.10
2024-02-11T15:32:35.955Z,6.70
2024-02-11T15:34:09.097Z,4.40
2024-02-11T15:35:52.153Z,6.40
2024-02-11T15:37:28.334Z,6.70
2024-02-11T15:39:00.822Z,6.70
2024-02-11T15:40:33.188Z,3.80
2024-02-11T15:42:08.436Z,4.40
2024-02-11T15:43:40.927Z,7.20
2024-02-11T15:45:13.128Z,4.10
2024-02-11T15:46:45.124Z,5.40
2024-02-11T15:48:22.299Z,5.80
2024-02-11T15:49:54.864Z,7.80
2024-02-11T15:51:27.430Z,6.80
2024-02-11T15:53:01.487Z,6.90
2024-02-11T15:54:33.895Z,5.60
2024-02-11T15:56:06.641Z,5.50
2024-02-11T15:57:39.487Z,7.50
2024-02-11T15:59:12.592Z,6.20
2024-02-11T16:00:46.187Z,5.10
2024-02-11T16:02:18.965Z,6.50
2024-02-11T16:03:51.148Z,6.40
2024-02-11T16:05:26.193Z,6.70
2024-02-11T16:06:59.262Z,6.30
2024-02-11T16:08:34.408Z,4.40
2024-02-11T16:10:11.865Z,4.60
2024-02-11T16:11:43.767Z,6.30
2024-02-11T16:13:15.598Z,5.40
2024-02-11T16:14:47.758Z,5.30
2024-02-11T16:16:19.700Z,5.30
2024-02-11T16:17:51.631Z,4.80
2024-02-11T16:19:26.095Z,4.80
2024-02-11T16:20:59.730Z,4.90
2024-02-11T16:22:31.549Z,4.20
2024-02-11T16:24:03.665Z,5.00
2024-02-11T16:25:38.840Z,6.20
2024-02-11T16:27:12.447Z,4.30
2024-02-11T16:28:47.213Z,5.40
2024-02-11T16:30:20.520Z,5.40
2024-02-11T16:31:52.345Z,4.90
2024-02-11T16:33:25.794Z,5.90
2024-02-11T16:34:58.147Z,7.40
2024-02-11T16:36:30.254Z,6.20
2024-02-11T16:38:04.186Z,9.20
2024-02-11T16:39:36.952Z,12.70
2024-02-11T16:41:10.320Z,14.60
2024-02-11T16:42:43.167Z,7.40
2024-02-11T16:44:15.070Z,5.50
2024-02-11T16:45:48.480Z,4.30
2024-02-11T16:47:24.020Z,5.20
2024-02-11T16:48:56.584Z,4.40
2024-02-11T16:50:28.530Z,5.80
2024-02-11T16:52:00.493Z,5.80
2024-02-11T16:53:32.392Z,4.20
2024-02-11T16:55:05.585Z,2.70
2024-02-11T16:56:37.865Z,3.70
2024-02-11T16:58:10.992Z,3.90
2024-02-11T16:59:44.845Z,3.70
2024-02-11T17:01:16.664Z,3.90
2024-02-11T17:02:49.274Z,4.00
2024-02-11T17:04:21.257Z,4.10
2024-02-11T17:05:53.246Z,6.90
2024-02-11T17:07:25.742Z,6.30
2024-02-11T17:08:58.119Z,7.00
2024-02-11T17:10:30.142Z,4.90
2024-02-11T17:12:05.674Z,5.80
2024-02-11T17:13:40.105Z,7.30
2024-02-11T17:15:12.096Z,4.40
2024-02-11T17:16:44.596Z,5.00
2024-02-11T17:18:16.734Z,4.90
2024-02-11T17:19:50.699Z,5.10
2024-02-11T17:21:23.665Z,6.60
2024-02-11T17:22:57.390Z,5.80
2024-02-11T17:24:29.567Z,4.50
2024-02-11T17:26:02.110Z,2.90
2024-02-11T17:27:34.206Z,4.20
2024-02-11T17:29:06.350Z,4.70
2024-02-11T17:30:41.692Z,4.90
2024-02-11T17:32:25.382Z,7.50
2024-02-11T17:34:03.544Z,6.60
2024-02-11T17:35:35.678Z,8.60
2024-02-11T17:37:08.164Z,11.10
2024-02-11T17:38:40.237Z,10.10
2024-02-11T17:40:12.675Z,8.70
2024-02-11T17:41:47.210Z,10.80
2024-02-11T17:43:19.167Z,8.70
2024-02-11T17:44:52.121Z,9.70
2024-02-11T17:46:23.972Z,7.90
2024-02-11T17:47:56.160Z,8.70
2024-02-11T17:49:30.389Z,10.00
2024-02-11T17:51:02.706Z,8.80
2024-02-11T17:52:37.222Z,9.60
2024-02-11T17:54:14.647Z,12.70
2024-02-11T17:55:46.986Z,10.70
2024-02-11T17:57:20.904Z,13.00
2024-02-11T17:58:52.817Z,10.20
2024-02-11T18:00:24.915Z,10.50
2024-02-11T18:01:57.057Z,8.20
2024-02-11T18:03:29.385Z,6.80
2024-02-11T18:05:01.740Z,7.60
2024-02-11T18:06:36.392Z,8.40
2024-02-11T18:08:08.601Z,8.30
2024-02-11T18:09:40.714Z,7.50
2024-02-11T18:11:12.940Z,10.70
2024-02-11T18:12:45.676Z,6.70
2024-02-11T18:14:19.073Z,5.50
2024-02-11T18:15:51.817Z,8.70
2024-02-11T18:17:23.907Z,6.70
2024-02-11T18:18:58.015Z,7.30
2024-02-11T18:20:31.311Z,6.20
2024-02-11T18:22:05.317Z,6.90
2024-02-11T18:23:37.492Z,8.10
2024-02-11T18:25:11.398Z,7.60
2024-02-11T18:26:43.395Z,8.70
2024-02-11T18:28:15.721Z,10.60
2024-02-11T18:29:48.201Z,9.20
2024-02-11T18:31:21.077Z,10.80
2024-02-11T18:32:53.285Z,8.00
2024-02-11T18:34:25.363Z,8.50
2024-02-11T18:35:57.269Z,10.50
2024-02-11T18:37:29.307Z,8.30
2024-02-11T18:39:01.302Z,7.00
2024-02-11T18:40:33.682Z,6.70
2024-02-11T18:42:06.469Z,5.60
2024-02-11T18:43:38.353Z,8.90
2024-02-11T18:45:11.435Z,7.90
2024-02-11T18:46:44.432Z,9.00
2024-02-11T18:48:17.764Z,8.10
2024-02-11T18:49:49.701Z,10.00
2024-02-11T18:51:21.620Z,8.00
2024-02-11T18:52:55.888Z,7.20
2024-02-11T18:54:27.730Z,8.20
2024-02-11T18:56:00.101Z,9.10
2024-02-11T18:57:32.364Z,9.00
2024-02-11T18:59:09.194Z,10.90
2024-02-11T19:00:41.376Z,8.40
2024-02-11T19:02:13.677Z,9.90
2024-02-11T19:03:45.607Z,23.40
2024-02-11T19:05:17.971Z,15.20
2024-02-11T19:06:50.535Z,14.40
2024-02-11T19:08:22.462Z,12.10
2024-02-11T19:09:54.640Z,10.80
2024-02-11T19:11:26.926Z,10.00
2024-02-11T19:12:58.832Z,11.70
2024-02-11T19:14:30.880Z,10.80
2024-02-11T19:16:03.112Z,9.90
2024-02-11T19:17:35.173Z,9.80
2024-02-11T19:19:07.231Z,9.90
2024-02-11T19:20:39.256Z,8.50
2024-02-11T19:22:17.452Z,10.30
2024-02-11T19:23:50.091Z,9.50
2024-02-11T19:25:21.997Z,9.60
2024-02-11T19:26:53.951Z,9.20
2024-02-11T19:28:25.805Z,8.80
2024-02-11T19:29:57.614Z,6.90
2024-02-11T19:31:31.940Z,8.50
2024-02-11T19:33:04.470Z,7.50
2024-02-11T19:34:37.649Z,9.30
2024-02-11T19:36:10.053Z,10.40
2024-02-11T19:37:42.083Z,8.60
2024-02-11T19:39:14.006Z,10.50
2024-02-11T19:40:46.615Z,8.60
2024-02-11T19:42:20.542Z,8.20
2024-02-11T19:43:52.499Z,7.60
2024-02-11T19:45:25.641Z,8.50
2024-02-11T19:46:59.150Z,8.40
2024-02-11T19:48:33.303Z,7.70
2024-02-11T19:50:06.574Z,10.70
2024-02-11T19:51:38.511Z,10.10
2024-02-11T19:53:25.649Z,8.60
2024-02-11T19:55:05.789Z,11.00
2024-02-11T19:56:37.684Z,9.50
2024-02-11T19:58:14.349Z,10.30
2024-02-11T19:59:46.161Z,7.60
2024-02-11T20:01:18.095Z,8.40
2024-02-11T20:02:49.962Z,8.80
2024-02-11T20:04:23.717Z,7.70
2024-02-11T20:05:56.868Z,7.50
2024-02-11T20:07:30.063Z,10.70
2024-02-11T20:09:02.571Z,8.10
2024-02-11T20:10:35.290Z,10.30
2024-02-11T20:12:08.053Z,10.50
2024-02-11T20:13:40.521Z,10.10
2024-02-11T20:15:13.787Z,9.10
2024-02-11T20:16:47.405Z,8.80
2024-02-11T20:18:19.726Z,8.30
2024-02-11T20:19:52.695Z,9.50
2024-02-11T20:21:24.650Z,10.00
2024-02-11T20:22:56.557Z,9.10
2024-02-11T20:24:28.620Z,9.20
2024-02-11T20:26:00.503Z,9.90
2024-02-11T20:27:32.343Z,7.20
2024-02-11T20:29:04.258Z,7.80
2024-02-11T20:30:38.517Z,7.80
2024-02-11T20:32:10.516Z,11.00
2024-02-11T20:33:42.696Z,9.40